Time;durP1;ratioP1;P1;durP2;ratioP2;P2;SDS_P1;SDS_P2;PMS_P1;PMS_P2;Temp;Humidity;BMP_temperature;BMP_pressure;BME280_temperature;BME280_humidity;BME280_pressure;Samples;Min_cycle;Max_cycle;Signal;HPM_P1;HPM_P2
2023/05/31 00:02:15;;;;;;;6.90;3.00;;;18.00;55.40;;;;;;5065700;28;20548;-62
2023/05/31 00:04:48;;;;;;;11.93;3.40;;;18.00;55.40;;;;;;5065381;28;20493;-63
2023/05/31 00:07:20;;;;;;;11.67;2.40;;;17.90;55.60;;;;;;5065680;28;20905;-62
2023/05/31 00:09:51;;;;;;;8.53;3.17;;;17.80;55.70;;;;;;5064637;28;20609;-62
2023/05/31 00:12:30;;;;;;;8.13;3.10;;;17.80;55.80;;;;;;5065236;28;20785;-62
2023/05/31 00:15:08;;;;;;;13.63;3.30;;;17.80;55.90;;;;;;5067797;28;20461;-63
2023/05/31 00:17:39;;;;;;;8.37;2.27;;;17.80;56.00;;;;;;5065423;28;21001;-63
2023/05/31 00:20:27;;;;;;;8.20;3.03;;;17.70;56.00;;;;;;5067128;28;20483;-63
2023/05/31 00:22:59;;;;;;;10.23;3.07;;;17.70;56.20;;;;;;5065914;28;20451;-63
2023/05/31 00:25:45;;;;;;;10.17;3.27;;;17.70;56.20;;;;;;5066413;28;20531;-63
2023/05/31 00:28:18;;;;;;;8.30;2.93;;;17.60;56.30;;;;;;5064754;28;21392;-63
2023/05/31 00:30:56;;;;;;;8.03;3.43;;;17.60;56.40;;;;;;5066106;28;20483;-62
2023/05/31 00:33:27;;;;;;;11.10;3.20;;;17.50;56.50;;;;;;5063662;28;20511;-63
2023/05/31 00:36:04;;;;;;;6.83;2.70;;;17.50;56.60;;;;;;5085050;28;20470;-62
2023/05/31 00:38:35;;;;;;;6.30;2.80;;;17.40;56.70;;;;;;5084792;28;20468;-63
2023/05/31 00:41:13;;;;;;;8.80;3.00;;;17.30;56.90;;;;;;5068029;28;20457;-62
2023/05/31 00:43:47;;;;;;;6.57;2.60;;;17.30;57.00;;;;;;5061995;28;20477;-63
2023/05/31 00:46:31;;;;;;;13.03;2.80;;;17.30;57.00;;;;;;5065951;28;20454;-62
2023/05/31 00:49:12;;;;;;;7.73;3.20;;;17.20;57.20;;;;;;5064911;28;20489;-63
2023/05/31 00:51:53;;;;;;;8.37;2.93;;;17.20;57.20;;;;;;5062501;28;20584;-63
2023/05/31 00:54:30;;;;;;;7.40;2.67;;;17.10;57.30;;;;;;5064108;28;20870;-63
2023/05/31 00:57:05;;;;;;;6.90;2.97;;;17.00;57.40;;;;;;5065615;28;20557;-62
2023/05/31 00:59:37;;;;;;;6.47;2.70;;;17.00;57.50;;;;;;5064116;28;20907;-62
2023/05/31 01:02:25;;;;;;;7.90;3.10;;;17.00;57.50;;;;;;5064200;28;20474;-63
2023/05/31 01:05:01;;;;;;;7.73;2.60;;;17.00;57.70;;;;;;5063879;28;20450;-62
2023/05/31 01:07:33;;;;;;;9.03;3.27;;;17.00;57.70;;;;;;5063047;28;20545;-62
2023/05/31 01:10:03;;;;;;;10.97;3.60;;;16.90;57.70;;;;;;5065380;28;20931;-63
2023/05/31 01:12:56;;;;;;;6.17;3.10;;;16.90;57.80;;;;;;5062824;28;20485;-63
2023/05/31 01:15:37;;;;;;;13.20;2.80;;;16.80;57.90;;;;;;5063220;28;20461;-62
2023/05/31 01:18:32;;;;;;;9.33;3.43;;;16.80;57.90;;;;;;5065103;28;20469;-62
2023/05/31 01:21:07;;;;;;;7.43;2.97;;;16.80;58.10;;;;;;5066380;28;20577;-63
2023/05/31 01:23:54;;;;;;;8.60;3.00;;;16.80;58.10;;;;;;5063931;28;20581;-63
2023/05/31 01:26:46;;;;;;;7.50;3.07;;;16.80;58.20;;;;;;5065459;28;20466;-63
2023/05/31 01:29:24;;;;;;;7.43;3.10;;;16.80;58.30;;;;;;5065553;28;20489;-64
2023/05/31 01:32:01;;;;;;;7.33;3.00;;;16.80;58.30;;;;;;5063727;28;20490;-62
2023/05/31 01:34:35;;;;;;;7.77;3.33;;;16.80;58.30;;;;;;5065162;28;20518;-62
2023/05/31 01:37:13;;;;;;;11.13;3.63;;;16.80;58.40;;;;;;5062045;28;20459;-62
2023/05/31 01:39:55;;;;;;;8.53;2.90;;;16.70;58.40;;;;;;5064842;28;20471;-62
2023/05/31 01:42:41;;;;;;;10.90;3.10;;;16.70;58.50;;;;;;5060756;28;20453;-62
2023/05/31 01:45:21;;;;;;;10.63;3.10;;;16.70;58.70;;;;;;5068063;28;20471;-62
2023/05/31 01:47:55;;;;;;;8.97;3.00;;;16.60;58.70;;;;;;5063009;28;20487;-63
2023/05/31 01:50:35;;;;;;;7.40;3.03;;;16.50;58.70;;;;;;5064307;28;20451;-63
2023/05/31 01:53:11;;;;;;;12.73;3.80;;;16.50;58.80;;;;;;5061963;28;20957;-63
2023/05/31 01:55:45;;;;;;;11.83;3.20;;;16.40;58.90;;;;;;5066180;28;20459;-62
2023/05/31 01:58:27;;;;;;;8.30;2.60;;;16.40;59.00;;;;;;5062990;28;20463;-63
2023/05/31 02:01:01;;;;;;;9.90;4.10;;;16.40;59.20;;;;;;5064722;28;20484;-62
2023/05/31 02:03:42;;;;;;;6.63;2.70;;;16.40;59.20;;;;;;5082471;28;20584;-63
2023/05/31 02:06:17;;;;;;;10.27;2.83;;;16.30;59.20;;;;;;5084951;28;20456;-63
2023/05/31 02:08:52;;;;;;;7.70;2.90;;;16.30;59.30;;;;;;5062618;28;20563;-63
2023/05/31 02:11:29;;;;;;;11.33;3.43;;;16.30;59.40;;;;;;5062439;28;21019;-63
2023/05/31 02:14:06;;;;;;;11.27;3.37;;;16.20;59.40;;;;;;5081586;28;20947;-65
2023/05/31 02:16:39;;;;;;;10.43;3.17;;;16.20;59.50;;;;;;5063100;28;21167;-63
2023/05/31 02:19:13;;;;;;;9.27;3.30;;;16.20;59.50;;;;;;5063703;28;20464;-63
2023/05/31 02:21:49;;;;;;;8.70;3.53;;;16.10;59.60;;;;;;5063271;28;20520;-63
2023/05/31 02:24:28;;;;;;;9.27;3.53;;;16.10;59.70;;;;;;5062047;28;20471;-63
2023/05/31 02:27:05;;;;;;;7.50;2.60;;;16.10;59.70;;;;;;5064789;28;21085;-63
2023/05/31 02:29:47;;;;;;;6.77;3.27;;;16.10;59.70;;;;;;5064385;28;20463;-63
2023/05/31 02:32:20;;;;;;;9.20;3.43;;;16.00;59.80;;;;;;5063520;28;20474;-63
2023/05/31 02:34:58;;;;;;;7.40;2.43;;;16.00;59.90;;;;;;5063142;28;20454;-63
2023/05/31 02:37:33;;;;;;;9.67;3.40;;;15.90;60.00;;;;;;5080804;28;20955;-63
2023/05/31 02:40:07;;;;;;;18.20;3.00;;;15.80;60.00;;;;;;5063779;28;21157;-63
2023/05/31 02:42:44;;;;;;;7.07;3.10;;;15.80;60.10;;;;;;5061950;28;20965;-63
2023/05/31 02:45:26;;;;;;;7.70;3.53;;;15.80;60.20;;;;;;5063418;28;20463;-63
2023/05/31 02:48:01;;;;;;;7.13;3.10;;;15.70;60.20;;;;;;5064877;28;20466;-63
2023/05/31 02:50:37;;;;;;;11.13;3.80;;;15.60;60.20;;;;;;5056718;28;20464;-63
2023/05/31 02:53:30;;;;;;;8.80;3.23;;;15.60;60.30;;;;;;5062582;28;21133;-63
2023/05/31 02:56:28;;;;;;;8.77;3.40;;;15.50;60.40;;;;;;5065505;28;20523;-63
2023/05/31 02:59:23;;;;;;;9.60;3.40;;;15.40;60.40;;;;;;5063376;28;20467;-63
2023/05/31 03:02:00;;;;;;;7.57;3.27;;;15.30;60.50;;;;;;5062808;28;20521;-63
2023/05/31 03:04:48;;;;;;;7.60;2.70;;;15.30;60.80;;;;;;5064008;28;21117;-63
2023/05/31 03:07:20;;;;;;;10.63;3.40;;;15.20;60.80;;;;;;5065167;28;20462;-63
2023/05/31 03:09:51;;;;;;;9.27;3.40;;;15.20;61.00;;;;;;5063623;28;20486;-64
2023/05/31 03:12:30;;;;;;;6.30;2.90;;;15.20;61.00;;;;;;5082464;28;20814;-63
2023/05/31 03:15:04;;;;;;;7.97;2.93;;;15.20;61.10;;;;;;5060414;28;20518;-63
2023/05/31 03:17:45;;;;;;;9.43;2.80;;;15.20;61.10;;;;;;5058473;28;20469;-63
2023/05/31 03:20:15;;;;;;;14.60;4.10;;;15.10;61.20;;;;;;5061290;28;21124;-63
2023/05/31 03:22:48;;;;;;;9.10;3.37;;;15.10;61.20;;;;;;5062603;28;20491;-63
2023/05/31 03:25:27;;;;;;;10.00;3.80;;;15.00;61.20;;;;;;5066050;28;21329;-63
2023/05/31 03:28:01;;;;;;;10.03;3.63;;;15.00;61.30;;;;;;5067646;28;20465;-63
2023/05/31 03:30:41;;;;;;;8.67;3.50;;;14.90;61.30;;;;;;5066824;28;20565;-63
2023/05/31 03:33:19;;;;;;;10.03;3.50;;;14.90;61.40;;;;;;5080262;28;20473;-63
2023/05/31 03:35:51;;;;;;;12.37;3.50;;;14.80;61.50;;;;;;5062103;28;20532;-63
2023/05/31 03:38:36;;;;;;;12.20;4.20;;;14.80;61.60;;;;;;5083133;28;20452;-63
2023/05/31 03:41:08;;;;;;;10.07;3.40;;;14.80;61.70;;;;;;5085123;28;20997;-63
2023/05/31 03:43:43;;;;;;;11.10;4.40;;;14.70;61.70;;;;;;5066968;28;20498;-63
2023/05/31 03:46:15;;;;;;;9.03;4.43;;;14.70;61.80;;;;;;5084379;28;21004;-62
2023/05/31 03:48:54;;;;;;;9.40;4.30;;;14.70;61.90;;;;;;5066357;28;20570;-63
2023/05/31 03:51:29;;;;;;;6.77;3.73;;;14.70;62.10;;;;;;5081303;28;20556;-63
2023/05/31 03:54:05;;;;;;;12.10;3.90;;;14.70;62.10;;;;;;5062813;28;20483;-63
2023/05/31 03:56:36;;;;;;;9.83;3.43;;;14.70;62.10;;;;;;5086218;28;20457;-63
2023/05/31 03:59:09;;;;;;;8.80;3.90;;;14.70;62.10;;;;;;5066462;28;20523;-63
2023/05/31 04:01:48;;;;;;;9.40;3.80;;;14.70;62.10;;;;;;5066361;28;20504;-63
2023/05/31 04:04:25;;;;;;;8.17;3.57;;;14.70;62.20;;;;;;5064905;28;20452;-63
2023/05/31 04:06:59;;;;;;;10.20;3.30;;;14.70;62.40;;;;;;5065947;28;21287;-63
2023/05/31 04:09:38;;;;;;;7.80;3.10;;;14.80;62.50;;;;;;5066309;28;20561;-63
2023/05/31 04:12:08;;;;;;;11.60;4.00;;;14.90;62.50;;;;;;5060007;28;20476;-63
2023/05/31 04:14:47;;;;;;;6.33;3.17;;;15.00;62.40;;;;;;5068488;28;20474;-63
2023/05/31 04:17:16;;;;;;;9.10;3.33;;;15.00;62.40;;;;;;5063736;28;20537;-63
2023/05/31 04:19:57;;;;;;;7.00;3.63;;;15.10;62.50;;;;;;5054635;28;20463;-63
2023/05/31 04:22:33;;;;;;;10.23;3.40;;;15.20;62.50;;;;;;5067354;28;20455;-63
2023/05/31 04:25:12;;;;;;;7.60;3.50;;;15.30;62.60;;;;;;5089952;28;20462;-63
2023/05/31 04:27:49;;;;;;;12.37;3.90;;;15.50;62.60;;;;;;5063967;28;20447;-63
2023/05/31 04:30:24;;;;;;;9.30;3.20;;;15.60;62.50;;;;;;5061170;28;20461;-63
2023/05/31 04:33:08;;;;;;;10.87;3.47;;;15.70;62.40;;;;;;5062209;28;20470;-63
2023/05/31 04:35:50;;;;;;;6.97;3.90;;;15.80;62.40;;;;;;5065686;28;20486;-63
2023/05/31 04:38:32;;;;;;;7.90;3.30;;;16.00;62.40;;;;;;5066455;28;20572;-63
2023/05/31 04:41:09;;;;;;;11.20;3.73;;;16.10;62.40;;;;;;5084192;28;20465;-63
2023/05/31 04:43:39;;;;;;;7.97;3.53;;;16.30;62.40;;;;;;5065852;28;20468;-63
2023/05/31 04:46:43;;;;;;;9.43;3.47;;;16.50;62.40;;;;;;5063933;28;20461;-63
2023/05/31 04:49:24;;;;;;;11.68;3.80;;;16.70;62.60;;;;;;5077021;28;20552;-64
2023/05/31 04:52:14;;;;;;;10.93;4.40;;;17.10;62.70;;;;;;5066170;28;20211;-64
2023/05/31 04:54:45;;;;;;;7.90;3.70;;;17.30;62.50;;;;;;5082294;28;20529;-64
2023/05/31 04:57:26;;;;;;;9.83;3.40;;;17.50;62.50;;;;;;5062706;28;20461;-64
2023/05/31 05:00:11;;;;;;;10.50;3.27;;;17.70;62.50;;;;;;5063285;28;20541;-65
2023/05/31 05:03:18;;;;;;;8.40;3.40;;;17.90;62.30;;;;;;5061016;28;20450;-64
2023/05/31 05:05:53;;;;;;;9.53;3.20;;;18.10;62.20;;;;;;5064449;28;20468;-65
2023/05/31 05:08:32;;;;;;;8.63;3.50;;;18.30;62.20;;;;;;5062408;28;20461;-64
2023/05/31 05:11:06;;;;;;;9.43;3.07;;;18.50;62.10;;;;;;5067266;28;20467;-64
2023/05/31 05:13:43;;;;;;;8.67;4.13;;;18.60;62.00;;;;;;5060299;28;20477;-65
2023/05/31 05:16:19;;;;;;;8.30;3.23;;;18.80;61.90;;;;;;5064746;28;20467;-65
2023/05/31 05:19:00;;;;;;;10.10;3.50;;;18.90;61.90;;;;;;5062955;28;20463;-65
2023/05/31 05:21:35;;;;;;;10.47;3.70;;;19.10;62.00;;;;;;5064076;28;20951;-65
2023/05/31 05:24:08;;;;;;;9.57;2.80;;;19.20;62.00;;;;;;5082658;28;20457;-65
2023/05/31 05:26:46;;;;;;;9.97;3.67;;;19.40;62.00;;;;;;5064985;28;20461;-64
2023/05/31 05:29:19;;;;;;;14.27;4.20;;;19.70;62.00;;;;;;5066407;28;20460;-65
2023/05/31 05:31:57;;;;;;;15.17;3.60;;;20.10;61.80;;;;;;5061798;28;20532;-64
2023/05/31 05:34:31;;;;;;;15.67;3.30;;;20.90;60.60;;;;;;5061709;28;20482;-64
2023/05/31 05:37:07;;;;;;;10.30;3.57;;;21.90;58.20;;;;;;5059928;28;20955;-65
2023/05/31 05:39:45;;;;;;;7.73;3.53;;;22.60;56.50;;;;;;5064642;28;20450;-64
2023/05/31 05:42:17;;;;;;;9.90;3.33;;;23.40;54.80;;;;;;5063006;28;20492;-64
2023/05/31 05:44:51;;;;;;;8.37;3.30;;;23.80;54.00;;;;;;5064647;28;20450;-65
2023/05/31 05:47:25;;;;;;;9.70;3.07;;;24.20;53.50;;;;;;5062376;28;20457;-64
2023/05/31 05:50:00;;;;;;;8.83;2.93;;;24.70;52.80;;;;;;5061369;28;20519;-65
2023/05/31 05:52:36;;;;;;;10.17;2.83;;;25.00;52.00;;;;;;5064198;28;20487;-64
2023/05/31 05:55:15;;;;;;;9.53;3.00;;;25.40;51.40;;;;;;5063489;28;21030;-63
2023/05/31 05:58:03;;;;;;;9.23;3.10;;;25.90;50.60;;;;;;5064793;28;20468;-63
2023/05/31 06:01:02;;;;;;;8.93;2.90;;;26.10;50.20;;;;;;5053181;28;20492;-63
2023/05/31 06:03:46;;;;;;;8.00;2.77;;;26.50;49.60;;;;;;5063338;28;20510;-63
2023/05/31 06:06:19;;;;;;;6.20;2.40;;;26.90;48.60;;;;;;5065267;28;21453;-63
2023/05/31 06:08:49;;;;;;;8.60;2.70;;;27.20;47.80;;;;;;5063567;28;20537;-63
2023/05/31 06:11:22;;;;;;;11.63;3.60;;;27.30;47.10;;;;;;5056278;28;20515;-63
2023/05/31 06:13:57;;;;;;;9.80;2.93;;;26.80;46.90;;;;;;5086069;28;20509;-64
2023/05/31 06:16:38;;;;;;;10.77;3.13;;;26.10;47.20;;;;;;5067070;28;20511;-63
2023/05/31 06:19:15;;;;;;;13.33;3.90;;;25.40;47.50;;;;;;5064848;28;20466;-63
2023/05/31 06:21:57;;;;;;;7.80;3.00;;;24.80;48.00;;;;;;5063763;28;20988;-63
2023/05/31 06:24:31;;;;;;;9.80;2.87;;;24.30;48.50;;;;;;5064031;28;21265;-63
2023/05/31 06:27:12;;;;;;;13.60;3.77;;;23.90;48.70;;;;;;5057000;28;20469;-63
2023/05/31 06:29:46;;;;;;;13.43;3.10;;;23.40;48.90;;;;;;5082613;28;20565;-63
2023/05/31 06:32:29;;;;;;;7.40;2.50;;;22.70;49.30;;;;;;5065431;28;20986;-63
2023/05/31 06:35:13;;;;;;;11.03;3.13;;;22.10;50.00;;;;;;5055086;28;20497;-63
2023/05/31 06:37:52;;;;;;;9.20;2.60;;;21.50;50.60;;;;;;5061972;28;20510;-63
2023/05/31 06:40:24;;;;;;;8.70;2.67;;;21.20;51.10;;;;;;5062355;28;20515;-63
2023/05/31 06:43:07;;;;;;;8.23;2.70;;;20.90;51.20;;;;;;5064947;28;20464;-63
2023/05/31 06:46:07;;;;;;;6.83;2.87;;;20.70;51.40;;;;;;5054778;28;20453;-63
2023/05/31 06:48:59;;;;;;;6.37;2.53;;;20.50;51.70;;;;;;5062729;28;20568;-63
2023/05/31 06:52:02;;;;;;;8.07;2.50;;;20.40;51.90;;;;;;5064422;28;20456;-64
2023/05/31 06:54:38;;;;;;;9.50;2.93;;;20.30;52.00;;;;;;5064999;28;20469;-64
2023/05/31 06:57:10;;;;;;;7.70;2.70;;;20.20;52.10;;;;;;5089699;28;20547;-63
2023/05/31 06:59:44;;;;;;;9.83;2.80;;;20.20;52.20;;;;;;5067797;28;20460;-63
2023/05/31 07:02:22;;;;;;;12.30;3.37;;;20.20;52.30;;;;;;5067670;28;20550;-63
2023/05/31 07:04:52;;;;;;;9.70;2.93;;;20.20;52.20;;;;;;5069549;28;20902;-63
2023/05/31 07:07:31;;;;;;;11.37;2.73;;;20.10;52.20;;;;;;5067004;28;20510;-63
2023/05/31 07:10:00;;;;;;;13.37;3.60;;;20.00;52.20;;;;;;5067687;28;20494;-63
2023/05/31 07:12:38;;;;;;;8.57;3.10;;;20.00;52.40;;;;;;5083855;28;20457;-63
2023/05/31 07:15:15;;;;;;;9.27;3.40;;;20.10;52.40;;;;;;5065026;28;20470;-63
2023/05/31 07:17:47;;;;;;;7.87;2.57;;;20.00;52.30;;;;;;5065701;28;20511;-63
2023/05/31 07:20:23;;;;;;;10.03;2.27;;;20.00;52.30;;;;;;5066264;28;20456;-63
2023/05/31 07:23:05;;;;;;;9.70;2.77;;;19.90;52.40;;;;;;5066975;28;20552;-63
2023/05/31 07:25:39;;;;;;;8.60;2.53;;;20.00;52.50;;;;;;5070070;28;20788;-63
2023/05/31 07:28:22;;;;;;;6.83;2.70;;;20.00;52.70;;;;;;5069417;28;20554;-63
2023/05/31 07:31:00;;;;;;;8.90;2.67;;;20.10;52.80;;;;;;5065986;28;20493;-63
2023/05/31 07:33:33;;;;;;;6.97;2.50;;;20.10;52.70;;;;;;5069032;28;20771;-63
2023/05/31 07:36:11;;;;;;;8.70;2.93;;;20.10;52.50;;;;;;5068891;28;20485;-63
2023/05/31 07:38:43;;;;;;;8.60;2.93;;;20.10;52.50;;;;;;5069920;28;20470;-63
2023/05/31 07:41:25;;;;;;;9.50;3.37;;;20.20;52.30;;;;;;5068770;28;20510;-63
2023/05/31 07:44:01;;;;;;;8.57;3.53;;;20.20;52.40;;;;;;5068066;28;21258;-63
2023/05/31 07:46:40;;;;;;;6.53;2.73;;;20.20;52.40;;;;;;5068960;28;20447;-63
2023/05/31 07:49:13;;;;;;;11.03;3.30;;;20.20;52.20;;;;;;5060482;28;20512;-63
2023/05/31 07:51:48;;;;;;;8.10;2.60;;;20.20;52.40;;;;;;5067480;28;20445;-63
2023/05/31 07:54:23;;;;;;;9.70;2.90;;;20.30;52.50;;;;;;5066851;28;20458;-63
2023/05/31 07:56:56;;;;;;;8.50;2.70;;;20.40;52.40;;;;;;5066507;28;20562;-63
2023/05/31 07:59:27;;;;;;;7.90;2.70;;;20.40;52.40;;;;;;5068514;28;20457;-63
2023/05/31 08:02:04;;;;;;;7.10;3.30;;;20.50;52.40;;;;;;5063387;28;20489;-63
2023/05/31 08:04:37;;;;;;;13.40;7.10;;;20.50;52.20;;;;;;5087802;28;20511;-64
2023/05/31 08:07:09;;;;;;;13.67;4.60;;;20.50;52.10;;;;;;5066200;28;20533;-63
2023/05/31 08:09:49;;;;;;;8.90;4.07;;;20.50;52.00;;;;;;5068391;28;20485;-63
2023/05/31 08:12:23;;;;;;;11.83;2.77;;;20.50;52.10;;;;;;5065167;28;20563;-63
2023/05/31 08:15:00;;;;;;;10.53;3.57;;;20.60;52.00;;;;;;5064650;28;20482;-63
2023/05/31 08:17:50;;;;;;;7.17;2.67;;;20.70;52.10;;;;;;5067397;28;20450;-63
2023/05/31 08:20:32;;;;;;;9.13;2.90;;;20.70;52.30;;;;;;5066905;28;20515;-63
2023/05/31 08:23:05;;;;;;;8.30;2.90;;;20.80;52.00;;;;;;5065952;28;20992;-63
2023/05/31 08:25:45;;;;;;;6.97;3.40;;;20.80;51.80;;;;;;5066280;28;20449;-64
2023/05/31 08:28:23;;;;;;;7.30;3.07;;;20.80;51.80;;;;;;5069837;28;20506;-63
2023/05/31 08:30:54;;;;;;;8.10;2.97;;;20.80;51.90;;;;;;5062607;28;21029;-64
2023/05/31 08:33:37;;;;;;;12.50;3.10;;;20.90;51.90;;;;;;5062921;28;20556;-63
2023/05/31 08:36:18;;;;;;;9.13;2.90;;;20.90;51.80;;;;;;5066942;28;20546;-63
2023/05/31 08:38:47;;;;;;;5.90;2.73;;;21.00;51.90;;;;;;5065899;28;20572;-63
2023/05/31 08:41:27;;;;;;;7.80;2.70;;;21.00;51.50;;;;;;5068793;28;20476;-63
2023/05/31 08:44:06;;;;;;;9.40;3.33;;;21.00;51.50;;;;;;5062427;28;20945;-63
2023/05/31 08:46:37;;;;;;;7.37;2.90;;;21.10;51.60;;;;;;5063490;28;20447;-63
2023/05/31 08:49:15;;;;;;;10.33;2.93;;;21.10;51.50;;;;;;5066016;28;20456;-63
2023/05/31 08:51:55;;;;;;;10.27;2.50;;;21.10;51.40;;;;;;5066167;28;20477;-63
2023/05/31 08:54:27;;;;;;;8.83;2.90;;;21.20;51.50;;;;;;5070264;28;20493;-63
2023/05/31 08:56:59;;;;;;;9.33;2.77;;;21.20;51.80;;;;;;5065864;28;20495;-63
2023/05/31 08:59:36;;;;;;;11.43;2.70;;;21.30;51.70;;;;;;5064391;28;20541;-63
2023/05/31 09:02:11;;;;;;;8.90;2.80;;;21.30;51.60;;;;;;5063788;28;20474;-63
2023/05/31 09:04:46;;;;;;;13.60;2.67;;;21.40;51.50;;;;;;5064947;28;20462;-63
2023/05/31 09:07:19;;;;;;;12.77;3.07;;;21.50;51.60;;;;;;5065302;28;20514;-63
2023/05/31 09:09:53;;;;;;;9.37;2.70;;;21.50;51.30;;;;;;5065738;28;20454;-63
2023/05/31 09:12:25;;;;;;;7.70;2.67;;;21.50;50.80;;;;;;5065334;28;20812;-63
2023/05/31 09:14:59;;;;;;;6.63;2.40;;;21.50;50.70;;;;;;5067350;28;20541;-63
2023/05/31 09:17:31;;;;;;;10.93;2.87;;;21.60;50.60;;;;;;5065963;28;20503;-64
2023/05/31 09:20:10;;;;;;;7.27;3.00;;;21.70;50.60;;;;;;5065141;28;20946;-64
2023/05/31 09:22:50;;;;;;;9.83;2.50;;;21.80;50.60;;;;;;5060323;28;20496;-63
2023/05/31 09:25:35;;;;;;;6.77;2.73;;;21.80;50.50;;;;;;5067866;28;20550;-63
2023/05/31 09:28:10;;;;;;;10.10;2.53;;;21.80;49.90;;;;;;5066593;28;20454;-63
2023/05/31 09:30:44;;;;;;;8.00;2.37;;;21.90;49.30;;;;;;5064102;28;20577;-63
2023/05/31 09:33:17;;;;;;;6.40;2.40;;;22.00;48.90;;;;;;5065935;28;20461;-63
2023/05/31 09:36:03;;;;;;;7.57;2.63;;;22.00;48.50;;;;;;5063418;28;20993;-63
2023/05/31 09:38:40;;;;;;;7.47;2.10;;;22.00;48.00;;;;;;5064177;28;20931;-63
2023/05/31 09:41:16;;;;;;;9.90;2.30;;;22.00;47.90;;;;;;5065692;28;20941;-63
2023/05/31 09:43:50;;;;;;;7.23;2.17;;;22.10;47.50;;;;;;5064697;28;20974;-63
2023/05/31 09:46:30;;;;;;;6.60;2.50;;;22.10;47.10;;;;;;5065296;28;20573;-63
2023/05/31 09:49:06;;;;;;;5.43;2.40;;;22.10;47.40;;;;;;5064032;28;20461;-63
2023/05/31 09:51:53;;;;;;;11.40;2.03;;;22.20;47.10;;;;;;5063994;28;20481;-63
2023/05/31 09:54:30;;;;;;;7.17;2.30;;;22.10;46.70;;;;;;5064875;28;20445;-63
2023/05/31 09:57:02;;;;;;;7.57;2.40;;;22.10;46.80;;;;;;5085213;28;20470;-63
2023/05/31 09:59:42;;;;;;;9.30;2.13;;;22.20;46.90;;;;;;5065475;28;20449;-64
2023/05/31 10:02:21;;;;;;;8.97;2.60;;;22.20;46.50;;;;;;5064205;28;20485;-63
2023/05/31 10:04:52;;;;;;;7.60;2.90;;;22.20;46.40;;;;;;5065190;28;20934;-64
2023/05/31 10:07:37;;;;;;;9.33;2.33;;;22.20;46.40;;;;;;5064144;28;20547;-63
2023/05/31 10:10:13;;;;;;;10.47;2.77;;;22.30;46.60;;;;;;5066459;28;20511;-63
2023/05/31 10:12:50;;;;;;;8.03;2.40;;;22.30;46.80;;;;;;5063860;28;20453;-63
2023/05/31 10:15:29;;;;;;;8.30;2.47;;;22.40;46.90;;;;;;5064392;28;20480;-63
2023/05/31 10:18:08;;;;;;;9.93;3.00;;;22.50;46.70;;;;;;5065253;28;20483;-63
2023/05/31 10:20:42;;;;;;;7.17;2.77;;;22.50;46.70;;;;;;5064465;28;21225;-63
2023/05/31 10:23:23;;;;;;;6.33;2.40;;;22.60;46.70;;;;;;5066367;28;21065;-63
2023/05/31 10:26:13;;;;;;;6.57;2.50;;;22.60;46.70;;;;;;5066759;28;20852;-63
2023/05/31 10:28:51;;;;;;;6.87;2.43;;;22.60;46.40;;;;;;5063777;28;20983;-63
2023/05/31 10:31:23;;;;;;;8.53;2.53;;;22.60;46.10;;;;;;5063055;28;20556;-63
2023/05/31 10:34:19;;;;;;;10.27;2.77;;;22.60;46.10;;;;;;5062235;28;20466;-63
2023/05/31 10:36:58;;;;;;;11.03;3.83;;;22.70;46.40;;;;;;5064830;28;20529;-63
2023/05/31 10:39:53;;;;;;;7.73;2.60;;;22.70;46.40;;;;;;5063948;28;20453;-63
2023/05/31 10:42:33;;;;;;;7.80;2.70;;;22.80;46.30;;;;;;5063139;28;20564;-64
2023/05/31 10:45:11;;;;;;;5.83;2.43;;;22.80;46.10;;;;;;5065149;28;21192;-64
2023/05/31 10:47:48;;;;;;;10.57;2.97;;;22.80;45.70;;;;;;5062857;28;20446;-63
2023/05/31 10:50:20;;;;;;;8.50;2.57;;;22.90;46.00;;;;;;5064709;28;20472;-64
2023/05/31 10:53:09;;;;;;;9.77;2.23;;;22.90;46.00;;;;;;5063989;28;20543;-63
2023/05/31 10:55:53;;;;;;;8.33;2.60;;;22.90;45.80;;;;;;5062644;28;20460;-63
2023/05/31 10:58:36;;;;;;;8.80;2.60;;;22.90;45.80;;;;;;5064683;28;20460;-63
2023/05/31 11:01:18;;;;;;;6.10;2.30;;;22.90;46.00;;;;;;5063935;28;20477;-62
2023/05/31 11:03:56;;;;;;;5.70;2.30;;;22.90;46.00;;;;;;5062889;28;20449;-65
2023/05/31 11:06:36;;;;;;;14.40;3.03;;;23.00;46.10;;;;;;5058364;28;20468;-63
2023/05/31 11:09:18;;;;;;;8.27;3.23;;;23.20;46.40;;;;;;5056724;28;20461;-63
2023/05/31 11:12:07;;;;;;;9.33;2.40;;;23.40;46.10;;;;;;5056440;28;20460;-62
2023/05/31 11:14:40;;;;;;;7.77;2.70;;;23.50;45.30;;;;;;5063718;28;20461;-63
2023/05/31 11:17:15;;;;;;;8.80;2.53;;;23.60;45.30;;;;;;5065200;28;20503;-63
2023/05/31 11:19:54;;;;;;;7.87;2.60;;;23.70;44.90;;;;;;5061251;28;20467;-62
2023/05/31 11:22:33;;;;;;;6.43;2.43;;;23.80;44.90;;;;;;5058927;28;20532;-63
2023/05/31 11:25:10;;;;;;;6.33;2.47;;;23.90;44.60;;;;;;5064468;28;20464;-63
2023/05/31 11:28:08;;;;;;;7.30;2.47;;;23.80;44.40;;;;;;5064403;28;20468;-62
2023/05/31 11:30:52;;;;;;;7.60;2.60;;;23.80;44.70;;;;;;5060781;28;21071;-63
2023/05/31 11:33:25;;;;;;;17.20;3.20;;;23.90;44.70;;;;;;5063434;28;20960;-62
2023/05/31 11:36:02;;;;;;;10.40;2.60;;;23.80;44.90;;;;;;5077838;28;20453;-62
2023/05/31 11:38:35;;;;;;;7.70;2.37;;;23.90;44.80;;;;;;5064122;28;20445;-62
2023/05/31 11:41:12;;;;;;;5.90;2.10;;;23.90;44.40;;;;;;5063925;28;20464;-63
2023/05/31 11:43:57;;;;;;;10.00;2.10;;;24.00;44.10;;;;;;5062172;28;20457;-63
2023/05/31 11:46:31;;;;;;;8.30;2.37;;;24.00;43.90;;;;;;5063630;28;20562;-63
2023/05/31 11:49:06;;;;;;;6.97;2.57;;;24.10;44.10;;;;;;5068544;28;20510;-62
2023/05/31 11:51:38;;;;;;;6.30;2.60;;;24.10;44.00;;;;;;5062712;28;21004;-62
2023/05/31 11:54:08;;;;;;;8.07;2.30;;;24.20;43.50;;;;;;5068228;28;20539;-63
2023/05/31 11:56:40;;;;;;;8.03;2.07;;;24.30;43.10;;;;;;5068386;28;20520;-63
2023/05/31 11:59:24;;;;;;;6.00;2.10;;;24.30;42.40;;;;;;5066856;28;20450;-63
2023/05/31 12:02:04;;;;;;;7.43;2.57;;;24.30;42.60;;;;;;5064367;28;20485;-64
2023/05/31 12:04:38;;;;;;;8.87;2.20;;;24.40;42.70;;;;;;5067948;28;20449;-63
2023/05/31 12:07:18;;;;;;;8.10;2.27;;;24.50;42.80;;;;;;5066347;28;20461;-63
2023/05/31 12:09:55;;;;;;;7.03;2.50;;;24.50;42.60;;;;;;5064687;28;20477;-63
2023/05/31 12:12:29;;;;;;;9.10;2.33;;;24.50;42.60;;;;;;5067849;28;20539;-63
2023/05/31 12:15:03;;;;;;;6.67;2.17;;;24.60;42.80;;;;;;5066113;28;20837;-63
2023/05/31 12:17:37;;;;;;;9.23;2.70;;;24.60;42.60;;;;;;5065289;28;20485;-63
2023/05/31 12:20:13;;;;;;;8.17;2.20;;;24.70;42.30;;;;;;5065983;28;20492;-62
2023/05/31 12:22:43;;;;;;;9.40;2.23;;;24.70;42.40;;;;;;5066249;28;21078;-63
2023/05/31 12:25:15;;;;;;;6.73;2.57;;;24.70;42.30;;;;;;5064537;28;20476;-63
2023/05/31 12:27:53;;;;;;;6.77;2.10;;;24.70;42.00;;;;;;5068539;28;20561;-63
2023/05/31 12:30:30;;;;;;;6.93;2.60;;;24.70;42.00;;;;;;5065391;28;20464;-63
2023/05/31 12:33:18;;;;;;;8.02;2.50;;;24.70;42.10;;;;;;5063409;28;20453;-63
2023/05/31 12:35:58;;;;;;;7.10;2.33;;;24.90;42.10;;;;;;5066133;28;20204;-63
2023/05/31 12:38:31;;;;;;;7.47;2.03;;;24.90;41.80;;;;;;5066231;28;20487;-63
2023/05/31 12:41:09;;;;;;;6.03;2.00;;;24.90;41.80;;;;;;5065225;28;20481;-63
2023/05/31 12:43:42;;;;;;;8.10;2.37;;;25.00;41.70;;;;;;5062631;28;20453;-63
2023/05/31 12:46:23;;;;;;;8.00;2.97;;;25.00;41.40;;;;;;5066476;28;20971;-63
2023/05/31 12:48:57;;;;;;;6.87;2.60;;;25.00;41.40;;;;;;5067979;28;20838;-63
2023/05/31 12:51:34;;;;;;;5.63;2.00;;;25.10;41.50;;;;;;5067625;28;20496;-63
2023/05/31 12:54:20;;;;;;;6.70;2.37;;;25.10;41.50;;;;;;5066076;28;20555;-63
2023/05/31 12:56:57;;;;;;;9.33;2.80;;;25.20;41.30;;;;;;5065998;28;20474;-63
2023/05/31 12:59:31;;;;;;;9.80;2.50;;;25.20;41.40;;;;;;5066908;28;20481;-63
2023/05/31 13:02:08;;;;;;;8.80;2.60;;;25.20;41.50;;;;;;5066375;28;21308;-63
2023/05/31 13:04:40;;;;;;;6.00;2.03;;;25.20;41.60;;;;;;5063078;28;20457;-63
2023/05/31 13:07:12;;;;;;;12.57;2.83;;;25.30;41.60;;;;;;5066873;28;20472;-64
2023/05/31 13:09:45;;;;;;;10.43;2.50;;;25.30;41.60;;;;;;5064687;28;20454;-63
2023/05/31 13:12:22;;;;;;;6.60;2.30;;;25.20;41.40;;;;;;5065185;28;20488;-63
2023/05/31 13:14:56;;;;;;;5.00;1.90;;;25.30;41.60;;;;;;5064468;28;20454;-63
2023/05/31 13:17:43;;;;;;;11.50;2.67;;;25.30;41.30;;;;;;5065518;28;20490;-63
2023/05/31 13:20:13;;;;;;;6.43;2.30;;;25.30;41.30;;;;;;5065678;28;21147;-63
2023/05/31 13:22:47;;;;;;;6.10;2.40;;;25.30;41.30;;;;;;5065387;28;20504;-64
2023/05/31 13:25:40;;;;;;;7.97;2.70;;;25.30;41.40;;;;;;5066559;28;20454;-63
2023/05/31 13:28:14;;;;;;;8.33;2.50;;;25.30;41.40;;;;;;5065053;28;20441;-63
2023/05/31 13:30:46;;;;;;;9.03;2.40;;;25.40;41.50;;;;;;5062641;28;21047;-63
2023/05/31 13:33:39;;;;;;;6.80;2.20;;;25.40;41.40;;;;;;5066405;28;20464;-63
2023/05/31 13:36:12;;;;;;;7.70;2.30;;;25.50;41.40;;;;;;5064256;28;20493;-64
2023/05/31 13:38:46;;;;;;;8.47;2.07;;;25.50;41.50;;;;;;5065862;28;20473;-63